Strona główna
METAR-TAF:

METAR-TAF

Lotnisko :

Praga, Czechy

Szerokość geograficzna: 50-12-59N, Długość geograficzna: 014-23-42E, wysokość: 280 m

Aktualna obserwacja pogody

Raport powstał 16 godziny i 52 minut temu, godzina 14:00 UTC
Wiatr 5 kt z kierunków zmiennych
Temperatura 15°C
Wilgotność 72%
Ciśnienie 1023 hPa
Widzialność 10 km lub więcej
Rozproszone chmury na wysokości 1800 ft
Przerywane chmury na wysokości 4300 ft

METAR: LKVO 191400Z VRB05KT 9999 SCT018 BKN043 15/10 Q1023

czas: 08:52 (06:52 UTC)


TAF: brakujący

Obserwacja i prognoza pogody dla ponad 4000 lotnisk (raport METAR i TAF).

Dostępne stacje oznaczono żółtymi i czerwonymi punktami na mapie.

Najedź kursorem aby zobaczyć nazwę stacji.

Kliknij aby zobaczyć obserwacje i prognozy pogody.

Aby zmienić mapę: kliknij na zielony przycisk z czarnym krzyżykiem, aby powiększyć; na zielony przycisk z myślnikiem, aby pomniejszyć; na zielone strzałki, aby przejść do map sąsiednich.


METAR-TAF: